Time;durP1;ratioP1;P1;durP2;ratioP2;P2;SDS_P1;SDS_P2;PMS_P1;PMS_P2;Temp;Humidity;BMP_temperature;BMP_pressure;BME280_temperature;BME280_humidity;BME280_pressure;Samples;Min_cycle;Max_cycle;Signal;HPM_P1;HPM_P2
2022/06/10 00:00:37;;;;;;;4.18;2.33;;;16.80;99.90;;;;;;5056182;28;20043;-66
2022/06/10 00:03:05;;;;;;;6.55;2.60;;;16.80;99.90;;;;;;5054078;28;20045;-66
2022/06/10 00:05:36;;;;;;;4.78;2.40;;;16.80;99.90;;;;;;5055255;28;20052;-66
2022/06/10 00:08:07;;;;;;;4.93;2.65;;;16.90;99.90;;;;;;5055493;28;20144;-66
2022/06/10 00:10:35;;;;;;;3.75;2.00;;;16.90;99.90;;;;;;5037922;28;20140;-67
2022/06/10 00:13:02;;;;;;;9.27;3.42;;;16.90;99.90;;;;;;5055116;28;20045;-66
2022/06/10 00:15:29;;;;;;;5.07;2.35;;;16.90;99.90;;;;;;5053864;28;20048;-66
2022/06/10 00:17:56;;;;;;;6.28;3.10;;;16.90;99.90;;;;;;5053775;28;20049;-66
2022/06/10 00:20:24;;;;;;;6.70;2.88;;;16.90;99.90;;;;;;5054024;28;20064;-66
2022/06/10 00:22:51;;;;;;;6.72;2.90;;;16.90;99.90;;;;;;5055301;28;20472;-66
2022/06/10 00:25:18;;;;;;;4.60;3.20;;;16.80;99.90;;;;;;5054357;28;20056;-66
2022/06/10 00:27:46;;;;;;;7.45;3.08;;;16.80;99.90;;;;;;5056320;28;20052;-66
2022/06/10 00:30:13;;;;;;;7.22;2.90;;;16.80;99.90;;;;;;5053792;28;20052;-66
2022/06/10 00:32:40;;;;;;;7.30;3.20;;;16.80;99.90;;;;;;5053728;28;20045;-66
2022/06/10 00:35:07;;;;;;;5.45;2.80;;;16.80;99.90;;;;;;5054018;28;20045;-66
2022/06/10 00:37:34;;;;;;;6.53;2.75;;;16.70;99.90;;;;;;5055520;28;20049;-66
2022/06/10 00:40:02;;;;;;;8.27;3.50;;;16.70;99.90;;;;;;5054694;28;20049;-66
2022/06/10 00:42:29;;;;;;;5.68;3.35;;;16.70;99.90;;;;;;5053481;28;20041;-66
2022/06/10 00:44:56;;;;;;;4.88;3.25;;;16.70;99.90;;;;;;5054583;28;20050;-66
2022/06/10 00:47:43;;;;;;;7.10;4.07;;;16.70;99.90;;;;;;5054652;28;20052;-66
2022/06/10 00:50:21;;;;;;;6.55;4.20;;;16.70;99.90;;;;;;5055401;28;20041;-66
2022/06/10 00:52:57;;;;;;;4.97;3.63;;;16.70;99.90;;;;;;5053702;28;20060;-66
2022/06/10 00:55:30;;;;;;;5.28;3.70;;;16.70;99.90;;;;;;5054082;28;20045;-66
2022/06/10 00:58:00;;;;;;;8.27;4.63;;;16.60;99.90;;;;;;5055086;28;20048;-66
2022/06/10 01:00:28;;;;;;;6.07;4.43;;;16.60;99.90;;;;;;5053107;28;20056;-67
2022/06/10 01:02:55;;;;;;;4.68;3.63;;;16.70;99.90;;;;;;5053328;28;20040;-66
2022/06/10 01:05:24;;;;;;;6.28;3.67;;;16.70;99.90;;;;;;5054241;28;20484;-66
2022/06/10 01:07:57;;;;;;;7.43;4.10;;;16.70;99.90;;;;;;5054839;28;20095;-66
2022/06/10 01:10:24;;;;;;;6.30;3.30;;;16.70;99.90;;;;;;5052899;28;20465;-66
2022/06/10 01:13:23;;;;;;;6.70;3.53;;;16.70;99.90;;;;;;5053161;28;20041;-66
2022/06/10 01:16:02;;;;;;;;;;;16.70;99.90;;;;;;5052089;28;20091;-66
2022/06/10 01:18:56;;;;;;;4.55;3.15;;;16.70;99.90;;;;;;5054701;28;19916;-66
2022/06/10 01:22:05;;;;;;;6.70;2.70;;;16.70;99.90;;;;;;5053625;28;20079;-66
2022/06/10 01:24:38;;;;;;;6.38;3.03;;;16.70;99.90;;;;;;5053751;28;20056;-66
2022/06/10 01:30:36;;;;;;;4.82;3.20;;;16.60;99.90;;;;;;5053926;28;20048;-66
2022/06/10 01:33:36;;;;;;;4.07;3.05;;;16.70;99.90;;;;;;5053554;28;20051;-66
2022/06/10 01:36:10;;;;;;;7.30;4.20;;;16.70;99.90;;;;;;5053634;28;20420;-66
2022/06/10 01:38:49;;;;;;;8.57;4.57;;;16.60;99.90;;;;;;5053207;28;20057;-66
2022/06/10 01:41:38;;;;;;;5.85;3.97;;;16.50;99.90;;;;;;5052510;28;20049;-66
2022/06/10 01:44:12;;;;;;;;;;;16.50;99.90;;;;;;5053318;28;20052;-66
2022/06/10 01:46:42;;;;;;;4.40;3.30;;;16.50;99.90;;;;;;5053713;28;19917;-66
2022/06/10 01:49:37;;;;;;;5.05;3.33;;;16.50;99.90;;;;;;5052385;28;20052;-66
2022/06/10 01:52:19;;;;;;;6.15;3.40;;;16.50;99.90;;;;;;5044776;28;20041;-65
2022/06/10 01:55:11;;;;;;;5.45;2.78;;;16.40;99.90;;;;;;5053283;28;20045;-66
2022/06/10 01:57:46;;;;;;;6.55;3.30;;;16.40;99.90;;;;;;5053111;28;20520;-66
2022/06/10 02:00:19;;;;;;;4.85;2.80;;;16.30;99.90;;;;;;5053786;28;20045;-66
2022/06/10 02:03:08;;;;;;;4.20;2.90;;;16.30;99.90;;;;;;5052173;28;20048;-66
2022/06/10 02:05:41;;;;;;;4.22;2.95;;;16.30;99.90;;;;;;5052056;28;20128;-66
2022/06/10 02:08:19;;;;;;;4.90;3.38;;;16.30;99.90;;;;;;5052870;28;20124;-66
2022/06/10 02:10:49;;;;;;;3.58;2.65;;;16.30;99.90;;;;;;5052785;28;20045;-66
2022/06/10 02:13:18;;;;;;;3.85;3.20;;;16.30;99.90;;;;;;5053541;28;20045;-66
2022/06/10 02:15:54;;;;;;;3.92;2.50;;;16.30;99.90;;;;;;5052305;28;20079;-66
2022/06/10 02:18:23;;;;;;;3.33;2.55;;;16.20;99.90;;;;;;5053894;28;20365;-66
2022/06/10 02:20:53;;;;;;;5.63;2.40;;;16.20;99.90;;;;;;5052156;28;20053;-66
2022/06/10 02:23:23;;;;;;;4.05;2.70;;;16.10;99.90;;;;;;5051951;28;20131;-66
2022/06/10 02:25:51;;;;;;;4.50;2.50;;;16.20;99.90;;;;;;5054090;28;20048;-66
2022/06/10 02:28:21;;;;;;;3.03;2.25;;;16.20;99.90;;;;;;5053850;28;20052;-66
2022/06/10 02:30:52;;;;;;;4.05;2.63;;;16.10;99.90;;;;;;5052375;28;20049;-66
2022/06/10 02:33:18;;;;;;;4.90;2.72;;;16.10;99.90;;;;;;5052963;28;20060;-66
2022/06/10 02:35:48;;;;;;;3.15;2.22;;;16.10;99.90;;;;;;5052050;28;20049;-66
2022/06/10 02:38:38;;;;;;;4.55;2.90;;;16.10;99.90;;;;;;5052830;28;20045;-66
2022/06/10 02:41:22;;;;;;;5.03;2.90;;;16.10;99.90;;;;;;5052975;28;20049;-66
2022/06/10 02:44:10;;;;;;;5.88;3.80;;;16.10;99.90;;;;;;5052262;28;20041;-66
2022/06/10 02:46:50;;;;;;;6.00;3.93;;;16.10;99.90;;;;;;5052003;28;20103;-66
2022/06/10 02:49:17;;;;;;;;;;;16.10;99.90;;;;;;5036206;28;20285;-66
2022/06/10 02:51:44;;;;;;;4.22;2.85;;;16.20;99.90;;;;;;5053127;28;19917;-66
2022/06/10 02:54:15;;;;;;;6.90;3.92;;;16.10;99.90;;;;;;5053513;28;20051;-66
2022/06/10 02:56:41;;;;;;;7.65;4.68;;;16.10;99.90;;;;;;5055358;28;20044;-66
2022/06/10 03:02:35;;;;;;;7.78;3.70;;;16.10;99.90;;;;;;5056628;28;20047;-66
2022/06/10 03:05:24;;;;;;;9.82;4.45;;;16.10;99.90;;;;;;5044635;28;20045;-66
2022/06/10 03:07:57;;;;;;;9.73;4.75;;;16.10;99.90;;;;;;5056243;28;20053;-66
2022/06/10 03:10:31;;;;;;;9.93;5.00;;;16.10;99.90;;;;;;5055954;28;20043;-66
2022/06/10 03:13:03;;;;;;;8.88;4.95;;;16.10;99.90;;;;;;5055662;28;20457;-66
2022/06/10 03:15:32;;;;;;;9.10;4.90;;;16.10;99.90;;;;;;5056013;28;20052;-66
2022/06/10 03:18:18;;;;;;;9.52;5.15;;;16.10;99.90;;;;;;5038508;28;20048;-66
2022/06/10 03:21:20;;;;;;;10.55;5.20;;;16.10;99.90;;;;;;5057043;28;20370;-66
2022/06/10 03:23:55;;;;;;;11.65;6.10;;;16.10;99.90;;;;;;5047800;28;20052;-66
2022/06/10 03:26:40;;;;;;;12.95;6.70;;;16.10;99.90;;;;;;5055768;28;20041;-66
2022/06/10 03:29:39;;;;;;;9.05;5.95;;;16.10;99.90;;;;;;5055995;28;20049;-66
2022/06/10 03:32:23;;;;;;;11.93;6.60;;;16.20;99.90;;;;;;5052346;28;20087;-66
2022/06/10 03:34:57;;;;;;;11.93;6.45;;;16.20;99.90;;;;;;5055868;28;20045;-66
2022/06/10 03:37:24;;;;;;;13.10;5.88;;;16.20;99.90;;;;;;5055004;28;20433;-66
2022/06/10 03:39:52;;;;;;;16.17;7.65;;;16.10;99.90;;;;;;5055677;28;20041;-67
2022/06/10 03:42:19;;;;;;;18.33;7.18;;;16.20;99.90;;;;;;5055684;28;20147;-66
2022/06/10 03:44:49;;;;;;;14.48;7.25;;;16.20;99.90;;;;;;5056877;28;20052;-66
2022/06/10 03:47:38;;;;;;;17.67;7.05;;;16.10;99.90;;;;;;5055089;28;20473;-66
2022/06/10 03:50:07;;;;;;;14.70;6.97;;;16.10;99.90;;;;;;5054675;28;20473;-66
2022/06/10 03:52:35;;;;;;;16.42;6.28;;;16.10;99.90;;;;;;5055281;28;20041;-66
2022/06/10 03:55:06;;;;;;;14.75;6.32;;;16.10;99.90;;;;;;5054736;28;20045;-66
2022/06/10 03:57:34;;;;;;;18.48;6.78;;;16.10;99.90;;;;;;5054615;28;20068;-66
2022/06/10 04:00:01;;;;;;;14.98;6.88;;;16.10;99.90;;;;;;5056587;28;20052;-66
2022/06/10 04:02:28;;;;;;;18.00;6.13;;;16.10;99.90;;;;;;5054496;28;20044;-66
2022/06/10 04:04:55;;;;;;;22.08;7.35;;;16.10;99.90;;;;;;5054381;28;20048;-66
2022/06/10 04:07:22;;;;;;;16.85;6.75;;;16.00;99.90;;;;;;5055262;28;20045;-66
2022/06/10 04:09:49;;;;;;;17.48;7.53;;;16.00;99.90;;;;;;5055343;28;20068;-66
2022/06/10 04:12:16;;;;;;;20.65;6.93;;;16.00;99.90;;;;;;5054072;28;20488;-66
2022/06/10 04:14:43;;;;;;;21.60;6.50;;;16.00;99.90;;;;;;5054384;28;20049;-66
2022/06/10 04:17:10;;;;;;;15.77;5.80;;;16.00;99.90;;;;;;5053949;28;20045;-66
2022/06/10 04:19:37;;;;;;;17.08;6.20;;;15.90;99.90;;;;;;5053905;28;20469;-66
2022/06/10 04:22:04;;;;;;;14.68;5.70;;;15.90;99.90;;;;;;5055148;28;20087;-66
2022/06/10 04:24:31;;;;;;;22.13;7.57;;;15.90;99.90;;;;;;5055859;28;20047;-66
2022/06/10 04:26:58;;;;;;;14.77;6.22;;;15.80;99.90;;;;;;5056000;28;20377;-66
2022/06/10 04:29:25;;;;;;;15.25;6.38;;;15.90;99.90;;;;;;5055446;28;20457;-66
2022/06/10 04:31:52;;;;;;;16.80;5.53;;;15.90;99.90;;;;;;5054010;28;20045;-66
2022/06/10 04:34:19;;;;;;;19.85;6.80;;;15.90;99.90;;;;;;5054654;28;20045;-66
2022/06/10 04:36:45;;;;;;;12.32;5.65;;;15.90;99.90;;;;;;5054756;28;20055;-66
2022/06/10 04:39:12;;;;;;;18.00;6.93;;;16.00;99.90;;;;;;5053899;28;20132;-66
2022/06/10 04:41:39;;;;;;;15.80;5.65;;;16.00;99.90;;;;;;5054715;28;20048;-66
2022/06/10 04:44:06;;;;;;;15.48;5.75;;;16.00;99.90;;;;;;5055019;28;20044;-66
2022/06/10 04:46:36;;;;;;;16.73;7.07;;;16.00;99.90;;;;;;5055604;28;20047;-66
2022/06/10 04:49:03;;;;;;;14.43;4.93;;;16.00;99.90;;;;;;5054933;28;20051;-66
2022/06/10 04:51:30;;;;;;;22.45;6.68;;;16.00;99.90;;;;;;5054803;28;20508;-66
2022/06/10 04:53:57;;;;;;;19.63;5.53;;;16.10;99.90;;;;;;5054783;28;20500;-66
2022/06/10 04:56:24;;;;;;;18.13;6.28;;;16.10;99.90;;;;;;5054634;28;20041;-66
2022/06/10 04:58:51;;;;;;;17.88;6.97;;;16.10;99.90;;;;;;5053087;28;20040;-66
2022/06/10 05:01:18;;;;;;;14.57;6.10;;;16.10;99.90;;;;;;5053379;28;20043;-66
2022/06/10 05:03:51;;;;;;;24.50;6.93;;;16.10;99.90;;;;;;5054265;28;20048;-66
2022/06/10 05:06:18;;;;;;;17.85;5.82;;;16.20;99.90;;;;;;5054140;28;20045;-66
2022/06/10 05:08:45;;;;;;;18.90;5.30;;;16.20;99.90;;;;;;5054207;28;20080;-66
2022/06/10 05:11:11;;;;;;;18.70;6.28;;;16.30;99.90;;;;;;5054433;28;20041;-66
2022/06/10 05:13:38;;;;;;;16.40;5.90;;;16.30;99.90;;;;;;5054904;28;20041;-66
2022/06/10 05:16:05;;;;;;;16.05;5.10;;;16.30;99.90;;;;;;5052962;28;20131;-66
2022/06/10 05:18:32;;;;;;;22.80;6.80;;;16.20;99.90;;;;;;5054182;28;20067;-67
2022/06/10 05:20:59;;;;;;;17.48;5.93;;;16.30;99.90;;;;;;5052787;28;20049;-66
2022/06/10 05:23:26;;;;;;;14.48;5.32;;;16.30;99.90;;;;;;5052723;28;20055;-66
2022/06/10 05:25:53;;;;;;;19.00;6.63;;;16.40;99.90;;;;;;5052638;28;20041;-66
2022/06/10 05:28:20;;;;;;;23.38;7.75;;;16.40;99.90;;;;;;5053839;28;20045;-66
2022/06/10 05:30:47;;;;;;;17.20;5.70;;;16.40;99.90;;;;;;5054868;28;20041;-66
2022/06/10 05:33:14;;;;;;;20.30;6.15;;;16.40;99.90;;;;;;5053695;28;20052;-66
2022/06/10 05:35:42;;;;;;;19.42;6.50;;;16.40;99.90;;;;;;5052466;28;20041;-66
2022/06/10 05:38:09;;;;;;;16.08;5.97;;;16.50;99.90;;;;;;5053487;28;20045;-66
2022/06/10 05:40:36;;;;;;;18.23;5.93;;;16.50;99.90;;;;;;5053824;28;20037;-66
2022/06/10 05:43:04;;;;;;;20.23;5.22;;;16.50;99.90;;;;;;5052297;28;20045;-67
2022/06/10 05:45:39;;;;;;;16.48;6.82;;;16.50;99.90;;;;;;5054325;28;20041;-66
2022/06/10 05:48:07;;;;;;;20.33;6.55;;;16.50;99.90;;;;;;5053185;28;20136;-66
2022/06/10 05:50:38;;;;;;;23.70;6.50;;;16.50;99.90;;;;;;5052273;28;20041;-66
2022/06/10 05:53:06;;;;;;;24.20;6.65;;;16.70;99.90;;;;;;5053410;28;20044;-66
2022/06/10 05:55:34;;;;;;;13.98;5.85;;;16.80;99.90;;;;;;5053652;28;20108;-66
2022/06/10 05:58:07;;;;;;;17.83;6.07;;;16.80;99.90;;;;;;5053531;28;20049;-67
2022/06/10 06:00:34;;;;;;;21.67;6.32;;;17.10;99.90;;;;;;5053618;28;20053;-66
2022/06/10 06:03:01;;;;;;;19.35;5.95;;;17.40;99.90;;;;;;5053208;28;20468;-66
2022/06/10 06:05:28;;;;;;;17.35;5.22;;;17.50;99.90;;;;;;5053198;28;20045;-67
2022/06/10 06:07:55;;;;;;;17.63;5.30;;;17.70;99.90;;;;;;5053172;28;20044;-67
2022/06/10 06:10:23;;;;;;;19.70;6.18;;;18.00;99.90;;;;;;5053481;28;20048;-67
2022/06/10 06:12:50;;;;;;;18.70;6.28;;;18.10;99.90;;;;;;5053405;28;20063;-66
2022/06/10 06:15:17;;;;;;;17.33;6.45;;;18.20;99.90;;;;;;5053939;28;20370;-66
2022/06/10 06:17:44;;;;;;;17.55;6.57;;;18.30;99.90;;;;;;5053832;28;20049;-66
2022/06/10 06:20:13;;;;;;;16.02;5.95;;;18.40;99.90;;;;;;5053511;28;20057;-66
2022/06/10 06:22:40;;;;;;;19.67;6.32;;;18.50;99.90;;;;;;5051868;28;20048;-67
2022/06/10 06:25:08;;;;;;;38.58;26.83;;;18.60;99.90;;;;;;5053360;28;20047;-66
2022/06/10 06:27:34;;;;;;;20.67;9.95;;;18.70;99.90;;;;;;5054346;28;20380;-79
2022/06/10 06:30:02;;;;;;;20.17;7.18;;;18.70;99.90;;;;;;5039737;28;20044;-75
2022/06/10 06:32:29;;;;;;;21.35;6.85;;;18.70;99.90;;;;;;5057164;28;20045;-75
2022/06/10 06:34:55;;;;;;;15.63;6.90;;;18.70;99.90;;;;;;5057513;28;20045;-75
2022/06/10 06:37:22;;;;;;;21.73;8.95;;;18.80;99.90;;;;;;5057691;28;20372;-73
2022/06/10 06:39:49;;;;;;;23.83;7.03;;;18.80;99.90;;;;;;5055795;28;20053;-75
2022/06/10 06:42:16;;;;;;;21.00;7.10;;;18.90;99.90;;;;;;5056002;28;20059;-75
2022/06/10 06:44:44;;;;;;;19.60;7.03;;;18.90;99.90;;;;;;5056912;28;20131;-75
2022/06/10 06:47:31;;;;;;;15.15;5.18;;;18.80;99.90;;;;;;5056506;28;20122;-76
2022/06/10 06:49:58;;;;;;;18.15;6.43;;;19.00;99.90;;;;;;5058280;28;20041;-76
2022/06/10 06:52:25;;;;;;;14.68;5.45;;;19.00;99.90;;;;;;5056771;28;20045;-75
2022/06/10 06:54:51;;;;;;;16.08;6.68;;;19.00;99.90;;;;;;5057843;28;20051;-76
2022/06/10 06:57:20;;;;;;;20.48;7.07;;;19.00;99.90;;;;;;5057227;28;20041;-76
2022/06/10 06:59:46;;;;;;;15.40;5.95;;;19.10;99.90;;;;;;5055812;28;20523;-75
2022/06/10 07:02:13;;;;;;;18.65;5.78;;;19.30;99.90;;;;;;5056888;28;20132;-77
2022/06/10 07:04:40;;;;;;;19.45;6.03;;;19.40;99.90;;;;;;5056869;28;20432;-69
2022/06/10 07:07:07;;;;;;;14.52;6.28;;;19.40;99.90;;;;;;5039095;28;20045;-81
2022/06/10 07:09:34;;;;;;;17.30;6.72;;;19.40;99.90;;;;;;5056741;28;20048;-77
2022/06/10 07:12:01;;;;;;;17.10;6.65;;;19.40;99.90;;;;;;5056393;28;20044;-72
2022/06/10 07:14:28;;;;;;;15.73;5.55;;;19.40;99.90;;;;;;5055322;28;20049;-74
2022/06/10 07:16:55;;;;;;;17.55;6.28;;;19.50;99.90;;;;;;5056880;28;20385;-74
2022/06/10 07:19:22;;;;;;;19.20;6.65;;;19.70;99.90;;;;;;5056487;28;20087;-72
2022/06/10 07:21:49;;;;;;;16.67;5.80;;;19.80;99.90;;;;;;5056576;28;20047;-80
2022/06/10 07:24:20;;;;;;;11.80;5.50;;;19.80;99.90;;;;;;5056185;28;20186;-67
2022/06/10 07:26:46;;;;;;;31.00;16.65;;;19.90;99.90;;;;;;5055946;28;20495;-69
2022/06/10 07:29:13;;;;;;;25.80;8.85;;;20.00;99.90;;;;;;5056802;28;20041;-66
2022/06/10 07:31:41;;;;;;;13.57;5.97;;;20.10;99.90;;;;;;5038605;28;20051;-68
2022/06/10 07:34:09;;;;;;;18.65;6.47;;;20.10;99.90;;;;;;5038549;28;20045;-67
2022/06/10 07:36:37;;;;;;;14.90;5.90;;;20.30;99.90;;;;;;5055935;28;20138;-66
2022/06/10 07:39:04;;;;;;;12.63;5.60;;;20.20;99.90;;;;;;5054721;28;20123;-66
2022/06/10 07:44:20;;;;;;;14.00;6.13;;;20.20;99.90;;;;;;5055960;28;20389;-67
2022/06/10 07:46:48;;;;;;;16.85;6.65;;;20.30;99.90;;;;;;5056851;28;20511;-68
2022/06/10 07:49:15;;;;;;;19.63;6.13;;;20.30;99.90;;;;;;5055863;28;20098;-67
2022/06/10 07:51:42;;;;;;;14.43;7.10;;;20.40;99.90;;;;;;5054653;28;20430;-65
2022/06/10 07:54:10;;;;;;;9.55;4.32;;;20.50;99.90;;;;;;5056440;28;20047;-66
2022/06/10 07:56:37;;;;;;;11.27;4.55;;;20.60;99.90;;;;;;5054772;28;20045;-67
2022/06/10 07:59:04;;;;;;;13.55;4.88;;;20.80;99.90;;;;;;5054547;28;20419;-67
2022/06/10 08:01:31;;;;;;;16.48;5.65;;;20.70;99.90;;;;;;5054231;28;20052;-66
2022/06/10 08:03:58;;;;;;;13.13;5.13;;;20.70;99.90;;;;;;5037805;28;20051;-67
2022/06/10 08:06:26;;;;;;;13.68;5.25;;;20.60;99.90;;;;;;5038184;28;20099;-72
2022/06/10 08:08:53;;;;;;;15.27;6.30;;;20.70;99.90;;;;;;5056467;28;20079;-75
2022/06/10 08:11:20;;;;;;;15.88;6.88;;;20.90;99.90;;;;;;5056338;28;20123;-71
2022/06/10 08:13:47;;;;;;;13.40;5.70;;;21.10;99.90;;;;;;5056051;28;20128;-75
2022/06/10 08:16:14;;;;;;;48.17;40.58;;;21.20;99.90;;;;;;5055948;28;20064;-73
2022/06/10 08:18:42;;;;;;;16.90;8.48;;;21.40;99.90;;;;;;5054225;28;20041;-75
2022/06/10 08:24:01;;;;;;;16.90;6.88;;;21.80;99.90;;;;;;5055031;28;20051;-75
2022/06/10 08:26:28;;;;;;;17.70;5.40;;;21.90;99.90;;;;;;5054120;28;20092;-73
2022/06/10 08:28:58;;;;;;;16.88;5.70;;;22.00;99.90;;;;;;5053650;28;20057;-75
2022/06/10 08:31:25;;;;;;;12.40;4.80;;;22.20;99.90;;;;;;5055760;28;20051;-69
2022/06/10 08:33:52;;;;;;;11.02;4.63;;;22.30;99.90;;;;;;5054116;28;20111;-69
2022/06/10 08:36:19;;;;;;;9.60;4.32;;;22.50;99.90;;;;;;5055750;28;20065;-69
2022/06/10 08:38:50;;;;;;;14.05;5.72;;;22.60;99.90;;;;;;5055235;28;20055;-69
2022/06/10 08:41:46;;;;;;;16.50;5.00;;;22.50;99.90;;;;;;5054532;28;20057;-69
2022/06/10 08:44:26;;;;;;;25.23;6.57;;;22.60;99.90;;;;;;5054704;28;20564;-69
2022/06/10 08:47:24;;;;;;;15.20;5.03;;;22.60;99.90;;;;;;5054145;28;20472;-69
2022/06/10 08:50:07;;;;;;;12.60;4.32;;;22.50;98.50;;;;;;5036767;28;20055;-69
2022/06/10 08:52:41;;;;;;;43.88;32.13;;;22.20;99.90;;;;;;5053989;28;20076;-62
2022/06/10 08:55:37;;;;;;;55.88;45.47;;;22.10;99.90;;;;;;5053338;28;20485;-74
2022/06/10 08:58:24;;;;;;;27.38;24.02;;;21.90;99.90;;;;;;5073424;28;20052;-71
2022/06/10 09:01:05;;;;;;;16.75;8.13;;;21.70;99.90;;;;;;5054207;28;20045;-68
2022/06/10 09:03:41;;;;;;;15.07;4.85;;;21.70;99.90;;;;;;5037816;28;20045;-68
2022/06/10 09:06:42;;;;;;;13.10;5.18;;;21.60;99.90;;;;;;5053021;28;20515;-69
2022/06/10 09:09:10;;;;;;;9.80;4.68;;;21.50;99.90;;;;;;5054014;28;20049;-69
2022/06/10 09:11:42;;;;;;;14.95;6.35;;;21.50;99.90;;;;;;5053191;28;20481;-69
2022/06/10 09:14:23;;;;;;;20.63;5.95;;;21.40;99.90;;;;;;5053933;28;20045;-69
2022/06/10 09:17:16;;;;;;;11.32;4.78;;;21.40;99.90;;;;;;5053465;28;20376;-69
2022/06/10 09:19:59;;;;;;;15.48;4.90;;;21.50;99.90;;;;;;5053914;28;20052;-69
2022/06/10 09:22:49;;;;;;;12.65;4.78;;;21.50;99.90;;;;;;5037086;28;20124;-69
2022/06/10 09:25:38;;;;;;;12.10;4.97;;;21.60;99.90;;;;;;5054103;28;20043;-69
2022/06/10 09:28:05;;;;;;;13.50;5.07;;;21.70;99.90;;;;;;5052575;28;20052;-69
2022/06/10 09:30:44;;;;;;;13.50;5.55;;;21.70;99.90;;;;;;5052601;28;20045;-69
2022/06/10 09:33:11;;;;;;;;;;;21.80;99.90;;;;;;5054202;28;20045;-69
2022/06/10 09:35:51;;;;;;;15.02;5.53;;;21.70;99.90;;;;;;5053643;28;19923;-69
2022/06/10 09:38:26;;;;;;;10.05;4.95;;;21.80;99.90;;;;;;5054437;28;20072;-69
2022/06/10 09:41:15;;;;;;;15.07;5.65;;;21.90;99.90;;;;;;5052928;28;20492;-69
2022/06/10 09:43:48;;;;;;;12.15;5.30;;;22.00;99.90;;;;;;5052365;28;20087;-70
2022/06/10 09:46:36;;;;;;;11.30;4.85;;;22.10;98.60;;;;;;5053263;28;20037;-69
2022/06/10 09:49:26;;;;;;;14.70;5.65;;;22.00;96.40;;;;;;5052343;28;20106;-69
2022/06/10 09:52:01;;;;;;;15.20;4.65;;;22.00;99.70;;;;;;5053413;28;20048;-69
2022/06/10 09:54:59;;;;;;;9.70;4.82;;;22.20;99.60;;;;;;5053727;28;20452;-70
2022/06/10 09:57:38;;;;;;;9.47;6.13;;;22.40;98.90;;;;;;5054419;28;20064;-69
2022/06/10 10:00:11;;;;;;;9.10;4.00;;;22.50;99.90;;;;;;5054113;28;20097;-69
2022/06/10 10:02:51;;;;;;;10.80;4.10;;;22.60;96.90;;;;;;5052232;28;20204;-69
2022/06/10 10:05:24;;;;;;;12.52;4.85;;;22.60;94.00;;;;;;5053960;28;20325;-69
2022/06/10 10:07:59;;;;;;;10.10;4.93;;;22.60;94.50;;;;;;5053564;28;20040;-69
2022/06/10 10:10:31;;;;;;;9.85;3.95;;;22.60;94.50;;;;;;5052267;28;20051;-69
2022/06/10 10:13:22;;;;;;;12.13;4.10;;;22.60;94.50;;;;;;5051881;28;20055;-69
2022/06/10 10:16:23;;;;;;;7.95;3.65;;;22.80;97.80;;;;;;5053913;28;20041;-69
2022/06/10 10:19:02;;;;;;;11.93;5.47;;;23.00;99.10;;;;;;5052538;28;20119;-69
2022/06/10 10:21:53;;;;;;;12.13;3.88;;;23.20;96.00;;;;;;5053882;28;20044;-69
2022/06/10 10:24:26;;;;;;;11.60;4.75;;;23.30;94.30;;;;;;5052738;28;20338;-70
2022/06/10 10:26:53;;;;;;;11.20;4.32;;;23.30;95.40;;;;;;5051774;28;20045;-69
2022/06/10 10:29:22;;;;;;;8.82;4.28;;;23.40;94.90;;;;;;5052209;28;20503;-69
2022/06/10 10:31:56;;;;;;;10.60;3.95;;;23.40;92.60;;;;;;5051756;28;20040;-69
2022/06/10 10:34:24;;;;;;;10.70;3.53;;;23.70;94.50;;;;;;5036184;28;20468;-69
2022/06/10 10:36:56;;;;;;;14.40;4.40;;;23.90;92.20;;;;;;5052588;28;20045;-69
2022/06/10 10:39:28;;;;;;;9.48;3.55;;;24.20;91.50;;;;;;5052363;28;20048;-69
2022/06/10 10:41:57;;;;;;;9.02;3.83;;;24.40;89.30;;;;;;5051609;28;20534;-70
2022/06/10 10:44:26;;;;;;;10.90;4.38;;;24.40;86.10;;;;;;5052349;28;20488;-69
2022/06/10 10:47:03;;;;;;;9.52;3.78;;;24.20;89.30;;;;;;5052636;28;20041;-69
2022/06/10 10:49:32;;;;;;;8.27;3.85;;;24.30;84.30;;;;;;5053265;28;20053;-69
2022/06/10 10:51:59;;;;;;;10.05;4.72;;;24.40;87.30;;;;;;5052607;28;20123;-69
2022/06/10 10:54:33;;;;;;;11.57;4.53;;;24.40;90.20;;;;;;5051501;28;20041;-69
2022/06/10 10:57:00;;;;;;;12.88;4.03;;;24.30;87.00;;;;;;5052607;28;20358;-69
2022/06/10 10:59:39;;;;;;;12.52;5.95;;;24.30;90.00;;;;;;5051705;28;20045;-69
2022/06/10 11:02:30;;;;;;;8.25;3.58;;;24.40;86.30;;;;;;5052324;28;20045;-70
2022/06/10 11:05:18;;;;;;;14.43;4.38;;;24.50;81.20;;;;;;5049903;28;20041;-71
2022/06/10 11:07:46;;;;;;;13.25;3.70;;;24.40;78.40;;;;;;5052538;28;20539;-72
2022/06/10 11:10:19;;;;;;;17.90;12.05;;;24.30;83.30;;;;;;5051291;28;20045;-70
2022/06/10 11:12:47;;;;;;;28.02;22.48;;;24.30;82.60;;;;;;5051217;28;20071;-71
2022/06/10 11:15:28;;;;;;;11.52;6.55;;;24.20;79.20;;;;;;5054389;28;20048;-71
2022/06/10 11:17:56;;;;;;;15.77;5.47;;;24.30;83.10;;;;;;5055925;28;20040;-71
2022/06/10 11:20:36;;;;;;;15.75;4.60;;;24.60;80.60;;;;;;5054911;28;20136;-71
2022/06/10 11:23:21;;;;;;;9.85;4.13;;;24.70;77.40;;;;;;5056221;28;20045;-73
2022/06/10 11:26:16;;;;;;;8.75;3.80;;;24.90;78.30;;;;;;5056127;28;20200;-72
2022/06/10 11:28:44;;;;;;;10.07;4.38;;;25.10;80.10;;;;;;5054860;28;20056;-74
2022/06/10 11:31:31;;;;;;;12.05;3.97;;;25.10;79.20;;;;;;5054734;28;20045;-70
2022/06/10 11:33:59;;;;;;;15.02;5.18;;;25.00;79.30;;;;;;5054832;28;20056;-69
2022/06/10 11:36:28;;;;;;;11.07;4.18;;;24.60;79.10;;;;;;5054660;28;20055;-70
2022/06/10 11:39:21;;;;;;;12.20;4.78;;;24.20;80.80;;;;;;5055589;28;20104;-64
2022/06/10 11:42:17;;;;;;;12.68;3.95;;;23.90;79.70;;;;;;5055730;28;20059;-63
2022/06/10 11:45:18;;;;;;;11.75;4.00;;;23.90;82.90;;;;;;5056120;28;20383;-63
2022/06/10 11:48:16;;;;;;;13.73;3.90;;;24.00;83.40;;;;;;5043437;28;20071;-67
2022/06/10 11:50:45;;;;;;;13.82;6.20;;;24.20;79.40;;;;;;5054576;28;20048;-64
2022/06/10 11:53:45;;;;;;;13.50;4.03;;;24.30;80.10;;;;;;5055456;28;20040;-65
2022/06/10 12:02:04;;;;;;;12.45;4.25;;;24.60;84.40;;;;;;5055418;28;20044;-66
2022/06/10 12:04:35;;;;;;;13.30;4.25;;;24.90;81.70;;;;;;5054444;28;20447;-65
2022/06/10 12:07:05;;;;;;;10.93;3.88;;;24.70;78.40;;;;;;5054933;28;20037;-65
2022/06/10 12:09:38;;;;;;;14.05;5.03;;;24.70;82.10;;;;;;5055070;28;20044;-64
2022/06/10 12:12:13;;;;;;;11.90;3.83;;;24.80;81.40;;;;;;5054508;28;20041;-69
2022/06/10 12:14:54;;;;;;;12.73;4.22;;;25.00;79.30;;;;;;5054733;28;20045;-67
2022/06/10 12:17:25;;;;;;;8.38;3.30;;;25.10;79.40;;;;;;5053847;28;20041;-63
2022/06/10 12:20:27;;;;;;;14.65;3.80;;;25.00;75.90;;;;;;5053756;28;20132;-63
2022/06/10 12:23:00;;;;;;;13.47;4.30;;;25.00;79.80;;;;;;5055370;28;20384;-69
2022/06/10 12:25:47;;;;;;;12.23;4.13;;;25.10;77.60;;;;;;5053807;28;20064;-64
2022/06/10 12:28:28;;;;;;;14.65;5.07;;;25.10;80.20;;;;;;5054459;28;20047;-65
2022/06/10 12:31:26;;;;;;;12.80;3.55;;;25.00;78.90;;;;;;5054518;28;20472;-67
2022/06/10 12:34:08;;;;;;;11.07;4.10;;;25.00;76.50;;;;;;5035524;28;20144;-68
2022/06/10 12:36:40;;;;;;;13.80;4.03;;;25.10;76.20;;;;;;5055613;28;20075;-68
2022/06/10 12:39:46;;;;;;;11.25;4.32;;;24.90;79.00;;;;;;5053489;28;20040;-68
2022/06/10 12:42:19;;;;;;;15.70;4.88;;;24.80;80.20;;;;;;5032897;28;20056;-68
2022/06/10 12:44:51;;;;;;;12.45;3.83;;;24.90;83.60;;;;;;5054824;28;20048;-69
2022/06/10 12:47:27;;;;;;;11.30;3.70;;;25.00;78.40;;;;;;5053486;28;20045;-69
2022/06/10 12:49:59;;;;;;;15.32;3.92;;;24.90;78.30;;;;;;5054057;28;20088;-68
2022/06/10 12:52:35;;;;;;;11.40;4.60;;;24.70;77.70;;;;;;5037345;28;20473;-68
2022/06/10 12:55:13;;;;;;;12.10;3.95;;;24.50;81.80;;;;;;5054573;28;20047;-68
2022/06/10 12:57:41;;;;;;;;;;;24.50;78.50;;;;;;5054711;28;20041;-68
2022/06/10 13:00:27;;;;;;;15.18;4.72;;;24.50;81.80;;;;;;5086266;28;19916;-67
2022/06/10 13:03:15;;;;;;;11.70;3.33;;;24.60;77.10;;;;;;5055370;28;20377;-67
2022/06/10 13:05:47;;;;;;;14.18;4.15;;;24.60;79.90;;;;;;5055224;28;20099;-76
2022/06/10 13:08:34;;;;;;;11.88;3.60;;;24.80;79.40;;;;;;5054475;28;20048;-74
2022/06/10 13:11:03;;;;;;;13.75;4.20;;;24.80;85.00;;;;;;5054410;28;20053;-73
2022/06/10 13:13:30;;;;;;;16.20;5.33;;;24.60;81.50;;;;;;5052858;28;20472;-77
2022/06/10 13:16:32;;;;;;;15.82;5.22;;;24.60;80.50;;;;;;5054014;28;20045;-73
2022/06/10 13:18:59;;;;;;;13.05;4.30;;;24.60;83.30;;;;;;5052890;28;20151;-72
2022/06/10 13:21:31;;;;;;;14.02;4.43;;;24.60;82.50;;;;;;5053574;28;20143;-73
2022/06/10 13:24:11;;;;;;;11.90;4.25;;;24.70;82.20;;;;;;5053125;28;20055;-76
2022/06/10 13:26:38;;;;;;;9.55;3.35;;;24.90;85.00;;;;;;5052658;28;20048;-76
2022/06/10 13:29:13;;;;;;;9.90;3.75;;;25.00;80.30;;;;;;5053299;28;20052;-75
2022/06/10 13:31:54;;;;;;;11.60;5.35;;;24.80;79.40;;;;;;5052787;28;20053;-75